GBB weather

Gabala International Airport
Gabala, Qabala, Azerbaijan

Public forecast

Using degrees Celsius for public forecast. Weather courtesy of forecast.io.

Current aviation weather report (METAR) for Gabala International Airport

Retrieved 2019/10/23 07:00 UTC (26 seconds ago):

UBBQ 230700Z 00000KT 9999 FEW040 17/10 Q1023 R16/CLRD// NOSIG RMK MT OP

Aviation forecast (TAF) for Gabala International Airport

Retrieved 2019/10/23 06:00 UTC (1 hour ago):

TAF UBBQ 230509Z 2306/2406 VRB04KT 9999 SCT030 SCT100 TX21/2311Z TN08/2301Z TEMPO 2306/2310 25006KT BECMG 2310/2312 17006KT SCT020 TEMPO 2318/2404 VRB04KT 4000 BR SCT010